ARCT2: Red River, ARthur City

                                SHEF ID:       ARCT2     Red River at Arthur City, TX
STATION TYPE: Stream Gauge
Regulating: Stage = 27.00, Flow = 84609

PRECIP ELEVATION STAGE STAGE(2) RIV-FLOW BAT-LOAD
in ft ft ft cfs volt
Ccp-Rev Ccp-Rev Ccp-Rev Ccp-Rev Ccp-Rev Ccp-Rev
(America/Chicago)
03/24 00:00 0.00 ---- 3.66 ---- 774 12.57
03/24 01:00 0.00 ---- 3.75 ---- 845 12.49
03/24 02:00 0.00 ---- 3.74 ---- 837 12.49
03/24 03:00 0.00 ---- 3.66 ---- 774 12.49
03/24 04:00 0.00 ---- 3.73 ---- 829 12.49
03/24 05:00 0.00 ---- 3.77 ---- 862 12.41
03/24 06:00 0.00 ---- 3.74 ---- 837 12.41
03/24 07:00 0.00 ---- 3.74 ---- 837 12.41
03/24 08:00 0.00 ---- 3.75 ---- 845 12.41
03/24 09:00 0.00 ---- 3.64 ---- 758 12.65
03/24 10:00 0.00 ---- 3.69 ---- 797 13.37
03/24 11:00 0.00 ---- 3.64 ---- 758 13.68
03/24 12:00 0.00 ---- 3.67 ---- 782 13.76
03/24 13:00 0.00 ---- 3.71 ---- 813 13.84
03/24 14:00 0.00 ---- 3.73 ---- 829 13.92
03/24 15:00 0.00 ---- 3.73 ---- 829 13.92
03/24 16:00 0.00 ---- 3.68 ---- 789 13.92
03/24 17:00 0.00 ---- 3.69 ---- 797 13.68
03/24 18:00 0.00 ---- 3.69 ---- 797 13.68
03/24 19:00 0.00 ---- 3.69 ---- 797 13.44
03/24 20:00 0.00 ---- 3.68 ---- 789 13.13
03/24 21:00 0.00 ---- 3.68 ---- 789 12.65
03/24 22:00 0.00 ---- 3.68 ---- 789 12.57
03/24 23:00 0.00 ---- 3.69 ---- 797 12.57
Data processed at Wed 25Mar2026 04:30 GMT

NOTICE: If you are parsing this page

Please convert to using our Data API. Starting early 2026 we will be migrating to: https://water.usace.army.mil with modern pages rendered in JavaScript. When this migration completes you will no longer be able to scrape this page! CWMSDataAPI (CDA)

Timeseries IDs (TSIDs)

TSIDs used from left to right in the data table
ARTH.Precip-Inc.Total.1Hour.1Hour.Ccp-Rev
ARTH.Stage.Inst.1Hour.0.Ccp-Rev
ARTH.Stage-Alt.Inst.1Hour.0.Ccp-Rev
ARTH.Flow.Inst.1Hour.0.Ccp-Rev
ARTH.Volt-Battery Load.Inst.1Hour.0.Ccp-Rev

                            

All information presented herein is the property of the government of the United States of America and may be revised or deleted at any time without prior notice. Dissemination of this information without the expressed written consent of the Public Affairs Office, Tulsa District U.S. Army Corps of Engineers is strictly prohibited. These data are gathered electronically and, as presented, have NOT undergone any form of quality control. These data are NOT guaranteed to be valid or correct.